Time;durP1;ratioP1;P1;durP2;ratioP2;P2;SDS_P1;SDS_P2;PMS_P1;PMS_P2;Temp;Humidity;BMP_temperature;BMP_pressure;BME280_temperature;BME280_humidity;BME280_pressure;Samples;Min_cycle;Max_cycle;Signal;HPM_P1;HPM_P2
2023/09/28 00:00:34;;;;;;;6.90;5.40;;;;;;;23.50;46.64;102033.10;107179;1254;25377;-56
2023/09/28 00:02:45;;;;;;;9.40;5.80;;;;;;;23.47;46.31;102031.48;106947;1261;25346;-56
2023/09/28 00:05:12;;;;;;;9.00;5.60;;;;;;;23.44;46.19;102035.02;105523;1253;2003771;-57
2023/09/28 00:07:41;;;;;;;10.10;6.10;;;;;;;23.42;46.05;102034.45;106697;1270;22539;-56
2023/09/28 00:10:10;;;;;;;6.90;5.50;;;;;;;23.40;46.17;102036.48;106767;1259;23090;-56
2023/09/28 00:12:48;;;;;;;9.50;5.60;;;;;;;23.37;45.92;102040.16;107020;1254;22509;-56
2023/09/28 00:15:15;;;;;;;12.00;6.30;;;;;;;23.35;45.89;102045.60;107150;1257;25321;-55
2023/09/28 00:17:43;;;;;;;11.80;6.50;;;;;;;23.33;46.10;102045.40;106835;1267;25370;-56
2023/09/28 00:20:13;;;;;;;10.30;5.80;;;;;;;23.30;46.09;102039.64;107112;1257;25322;-56
2023/09/28 00:22:43;;;;;;;15.60;5.90;;;;;;;23.27;45.94;102038.77;107141;1254;23215;-56
2023/09/28 00:25:11;;;;;;;6.40;5.70;;;;;;;23.23;45.86;102040.92;107066;1257;25328;-57
2023/09/28 00:27:39;;;;;;;10.50;5.30;;;;;;;23.19;45.81;102039.55;107102;1254;24448;-55
2023/09/28 00:30:09;;;;;;;8.20;5.80;;;;;;;23.15;45.77;102044.54;107144;1254;25314;-55
2023/09/28 00:32:36;;;;;;;11.30;5.10;;;;;;;23.11;45.98;102044.96;106955;1258;25367;-56
2023/09/28 00:35:05;;;;;;;10.40;5.00;;;;;;;23.07;45.50;102048.03;107144;1263;22539;-57
2023/09/28 00:37:32;;;;;;;10.40;6.20;;;;;;;23.02;45.16;102045.82;106953;1270;25319;-57
2023/09/28 00:39:59;;;;;;;10.00;5.80;;;;;;;22.97;45.19;102046.41;107104;1261;25331;-56
2023/09/28 00:42:28;;;;;;;7.20;5.90;;;;;;;22.94;45.24;102047.10;106873;1267;25408;-56
2023/09/28 00:44:55;;;;;;;11.30;5.80;;;;;;;22.91;45.40;102048.34;107133;1262;23935;-56
2023/09/28 00:47:23;;;;;;;12.20;6.10;;;;;;;22.88;45.20;102044.05;107094;1264;25481;-56
2023/09/28 00:49:52;;;;;;;8.50;6.00;;;;;;;22.86;45.29;102037.65;107128;1254;24143;-57
2023/09/28 00:52:19;;;;;;;12.90;5.70;;;;;;;22.83;45.34;102039.23;107132;1267;25331;-57
2023/09/28 00:54:47;;;;;;;12.10;6.50;;;;;;;22.81;45.33;102042.86;106919;1256;25477;-55
2023/09/28 00:57:14;;;;;;;12.60;6.40;;;;;;;22.79;45.33;102043.30;107127;1256;25359;-57
2023/09/28 00:59:41;;;;;;;10.70;6.00;;;;;;;22.77;45.05;102046.44;107132;1254;25478;-56
2023/09/28 01:02:08;;;;;;;12.20;6.10;;;;;;;22.74;44.79;102045.34;107122;1255;25343;-56
2023/09/28 01:04:35;;;;;;;12.20;6.10;;;;;;;22.71;44.96;102044.45;106893;1266;25340;-55
2023/09/28 01:07:04;;;;;;;9.80;5.90;;;;;;;22.70;45.24;102046.44;106822;1267;25324;-57
2023/09/28 01:09:31;;;;;;;10.10;6.00;;;;;;;22.69;45.48;102043.70;107071;1256;22544;-56
2023/09/28 01:11:59;;;;;;;11.80;6.10;;;;;;;22.70;45.57;102048.59;106907;1267;25408;-56
2023/09/28 01:14:29;;;;;;;8.00;6.20;;;;;;;22.69;45.95;102045.29;107138;1259;25395;-56
2023/09/28 01:16:58;;;;;;;8.60;5.80;;;;;;;22.64;45.92;102053.80;107080;1255;25372;-56
2023/09/28 01:19:26;;;;;;;9.70;5.70;;;;;;;22.64;46.00;102052.00;107051;1270;25414;-57
2023/09/28 01:21:54;;;;;;;12.80;6.00;;;;;;;22.65;45.70;102051.44;107148;1263;25356;-57
2023/09/28 01:24:21;;;;;;;8.90;5.60;;;;;;;22.65;45.58;102050.77;107086;1257;23926;-58
2023/09/28 01:26:49;;;;;;;13.40;6.60;;;;;;;22.64;45.68;102046.93;107156;1257;22517;-56
2023/09/28 01:29:16;;;;;;;8.10;6.00;;;;;;;22.63;45.76;102049.25;106650;1274;25337;-57
2023/09/28 01:31:43;;;;;;;9.70;6.60;;;;;;;22.63;45.73;102047.87;107140;1257;25622;-56
2023/09/28 01:34:10;;;;;;;11.50;6.40;;;;;;;22.61;45.24;102051.66;107161;1260;25350;-56
2023/09/28 01:36:37;;;;;;;11.00;6.20;;;;;;;22.59;44.76;102056.37;106830;1267;25356;-56
2023/09/28 01:39:07;;;;;;;9.50;6.70;;;;;;;22.56;44.74;102054.55;106858;1261;25439;-56
2023/09/28 01:41:35;;;;;;;12.60;6.40;;;;;;;22.55;45.09;102050.91;105560;1257;1003068;-56
2023/09/28 01:44:03;;;;;;;14.20;6.80;;;;;;;22.53;45.55;102052.75;107126;1256;25471;-56
2023/09/28 01:46:30;;;;;;;12.60;6.60;;;;;;;22.53;45.88;102050.98;107153;1254;22528;-57
2023/09/28 01:48:58;;;;;;;9.10;6.30;;;;;;;22.51;45.93;102054.06;107175;1257;25420;-56
2023/09/28 01:51:26;;;;;;;12.10;7.30;;;;;;;22.50;45.87;102053.06;106849;1266;25330;-57
2023/09/28 01:53:53;;;;;;;9.50;6.30;;;;;;;22.49;45.67;102047.63;107177;1257;25399;-57
2023/09/28 01:56:21;;;;;;;15.00;7.00;;;;;;;22.50;45.72;102050.60;106847;1266;23026;-56
2023/09/28 01:58:49;;;;;;;9.70;6.40;;;;;;;22.50;45.91;102049.54;106901;1259;22546;-56
2023/09/28 02:01:25;;;;;;;12.40;6.30;;;;;;;22.50;46.21;102050.41;107187;1260;25359;-55
2023/09/28 02:03:54;;;;;;;9.50;6.90;;;;;;;22.49;46.24;102052.41;107160;1258;25359;-56
2023/09/28 02:06:21;;;;;;;12.70;6.70;;;;;;;22.47;46.04;102053.39;107152;1271;25399;-56
2023/09/28 02:08:48;;;;;;;10.30;6.40;;;;;;;22.45;46.02;102050.85;106653;1274;25312;-56
2023/09/28 02:11:15;;;;;;;10.00;6.50;;;;;;;22.44;46.03;102051.46;106921;1260;25268;-56
2023/09/28 02:13:44;;;;;;;13.40;7.50;;;;;;;22.43;46.16;102053.27;107158;1267;25478;-56
2023/09/28 02:16:11;;;;;;;10.10;6.50;;;;;;;22.44;46.65;102055.49;106860;1264;25385;-57
2023/09/28 02:18:42;;;;;;;11.60;6.60;;;;;;;22.45;46.77;102055.83;107046;1257;25325;-57
2023/09/28 02:21:12;;;;;;;13.70;6.60;;;;;;;22.44;46.85;102056.73;107045;1261;25477;-56
2023/09/28 02:23:41;;;;;;;8.50;6.40;;;;;;;22.44;46.49;102057.81;107143;1257;22531;-56
2023/09/28 02:26:09;;;;;;;9.40;6.00;;;;;;;22.44;46.01;102059.59;107031;1257;22526;-57
2023/09/28 02:28:37;;;;;;;8.60;7.10;;;;;;;22.39;45.81;102063.02;106941;1270;25318;-57
2023/09/28 02:31:07;;;;;;;8.70;6.10;;;;;;;22.35;45.94;102065.16;107129;1257;25433;-57
2023/09/28 02:33:34;;;;;;;10.40;6.60;;;;;;;22.32;46.07;102070.61;106870;1263;25478;-56
2023/09/28 02:36:01;;;;;;;11.00;7.00;;;;;;;22.31;46.11;102069.27;107195;1255;25356;-56
2023/09/28 02:38:29;;;;;;;12.20;6.60;;;;;;;22.31;46.34;102069.45;106804;1268;25359;-57
2023/09/28 02:40:56;;;;;;;9.80;6.30;;;;;;;22.30;46.10;102068.41;107181;1263;25404;-57
2023/09/28 02:43:23;;;;;;;12.60;6.20;;;;;;;22.29;45.61;102062.14;106903;1260;25350;-57
2023/09/28 02:45:50;;;;;;;9.60;6.50;;;;;;;22.28;45.34;102058.61;106863;1266;25365;-57
2023/09/28 02:48:18;;;;;;;10.00;5.70;;;;;;;22.29;45.07;102058.06;107076;1263;25346;-57
2023/09/28 02:50:45;;;;;;;10.60;6.30;;;;;;;22.27;44.54;102064.33;107145;1264;25331;-56
2023/09/28 02:53:11;;;;;;;8.80;6.20;;;;;;;22.26;44.59;102062.26;107065;1263;24381;-56
2023/09/28 02:55:39;;;;;;;9.10;6.60;;;;;;;22.25;44.31;102068.86;107026;1260;25346;-57
2023/09/28 02:58:06;;;;;;;12.70;6.70;;;;;;;22.20;43.98;102067.32;107135;1266;25341;-55
2023/09/28 03:00:33;;;;;;;11.00;5.90;;;;;;;22.19;44.07;102066.48;107191;1263;25227;-55
2023/09/28 03:03:03;;;;;;;9.00;6.20;;;;;;;22.18;43.75;102062.85;106868;1267;25391;-56
2023/09/28 03:05:30;;;;;;;7.50;5.90;;;;;;;22.16;43.39;102058.89;106786;1272;25449;-56
2023/09/28 03:07:58;;;;;;;10.10;6.40;;;;;;;22.13;43.66;102060.81;106924;1267;25340;-56
2023/09/28 03:10:26;;;;;;;10.70;7.00;;;;;;;22.10;43.57;102061.30;106819;1270;25365;-56
2023/09/28 03:12:56;;;;;;;7.90;6.00;;;;;;;22.09;43.24;102060.65;107096;1263;24428;-56
2023/09/28 03:15:24;;;;;;;7.40;6.10;;;;;;;22.08;43.41;102063.55;107093;1261;25328;-55
2023/09/28 03:17:51;;;;;;;8.90;5.80;;;;;;;22.03;43.26;102058.13;107026;1256;24391;-55
2023/09/28 03:20:21;;;;;;;12.00;6.70;;;;;;;22.04;43.00;102059.33;106985;1269;25646;-55
2023/09/28 03:22:52;;;;;;;7.30;5.40;;;;;;;22.04;43.47;102060.02;106748;1266;25379;-57
2023/09/28 03:25:21;;;;;;;7.70;6.40;;;;;;;21.99;43.67;102064.67;107096;1256;25392;-55
2023/09/28 03:27:49;;;;;;;12.30;6.20;;;;;;;21.97;43.35;102064.45;107062;1266;25458;-57
2023/09/28 03:30:17;;;;;;;12.60;6.50;;;;;;;21.94;43.29;102064.92;106966;1254;23870;-55
2023/09/28 03:32:47;;;;;;;7.80;6.60;;;;;;;21.92;43.12;102070.68;106712;1270;25428;-57
2023/09/28 03:35:15;;;;;;;9.80;7.00;;;;;;;21.88;43.40;102071.56;107034;1266;22539;-56
2023/09/28 03:37:42;;;;;;;10.10;6.30;;;;;;;21.85;43.33;102071.02;107048;1256;24327;-57
2023/09/28 03:40:10;;;;;;;9.00;6.20;;;;;;;21.81;43.55;102075.77;106980;1254;22650;-56
2023/09/28 03:42:45;;;;;;;9.30;6.30;;;;;;;21.77;43.52;102072.95;107008;1260;25286;-56
2023/09/28 03:45:14;;;;;;;11.40;6.40;;;;;;;21.74;43.38;102074.36;107051;1270;24327;-56
2023/09/28 03:47:42;;;;;;;10.80;6.50;;;;;;;21.69;43.16;102073.33;106556;1270;22561;-53
2023/09/28 03:50:11;;;;;;;10.40;6.40;;;;;;;21.66;43.34;102071.55;106826;1271;25503;-56
2023/09/28 03:52:38;;;;;;;11.50;7.10;;;;;;;21.63;43.50;102072.41;106823;1257;23855;-55
2023/09/28 03:55:12;;;;;;;6.80;6.10;;;;;;;21.59;43.59;102074.53;106742;1263;22549;-56
2023/09/28 03:57:39;;;;;;;10.00;6.40;;;;;;;21.56;43.65;102073.63;107138;1264;25452;-58
2023/09/28 04:00:08;;;;;;;11.90;7.40;;;;;;;21.52;43.93;102074.16;107163;1257;25449;-56
2023/09/28 04:02:44;;;;;;;8.80;6.80;;;;;;;21.49;44.04;102068.98;106798;1267;25367;-56
2023/09/28 04:05:14;;;;;;;9.30;7.40;;;;;;;21.46;43.87;102073.58;106645;1267;25321;-56
2023/09/28 04:07:42;;;;;;;9.60;7.30;;;;;;;21.43;44.17;102072.29;107050;1257;25433;-57
2023/09/28 04:10:10;;;;;;;13.50;7.60;;;;;;;21.39;44.23;102074.75;107134;1266;22531;-55
2023/09/28 04:12:37;;;;;;;12.00;7.10;;;;;;;21.36;43.78;102075.95;107076;1255;26586;-56
2023/09/28 04:15:05;;;;;;;10.70;6.70;;;;;;;21.35;43.41;102079.73;106799;1264;25384;-56
2023/09/28 04:17:34;;;;;;;9.50;7.40;;;;;;;21.38;43.30;102079.77;106809;1267;25318;-56
2023/09/28 04:20:05;;;;;;;15.80;7.10;;;;;;;21.37;43.38;102079.63;107055;1267;25333;-56
2023/09/28 04:22:32;;;;;;;8.70;7.70;;;;;;;21.34;43.40;102077.80;106809;1264;22542;-55
2023/09/28 04:24:59;;;;;;;11.40;7.50;;;;;;;21.36;43.29;102080.71;107086;1256;25369;-56
2023/09/28 04:27:27;;;;;;;10.50;7.20;;;;;;;21.32;43.55;102074.75;107045;1255;25318;-55
2023/09/28 04:29:54;;;;;;;8.00;7.20;;;;;;;21.30;43.65;102080.46;107173;1257;25468;-56
2023/09/28 04:32:21;;;;;;;11.80;7.30;;;;;;;21.31;43.87;102081.16;106934;1263;25340;-57
2023/09/28 04:34:48;;;;;;;10.60;8.20;;;;;;;21.34;44.25;102082.23;107275;1257;25320;-56
2023/09/28 04:37:19;;;;;;;10.40;8.30;;;;;;;21.35;44.41;102080.61;106974;1270;25321;-56
2023/09/28 04:39:46;;;;;;;11.90;7.50;;;;;;;21.36;44.27;102083.36;107207;1263;25365;-56
2023/09/28 04:42:13;;;;;;;9.80;8.00;;;;;;;21.36;44.17;102078.27;107146;1257;25339;-57
2023/09/28 04:44:43;;;;;;;11.00;7.90;;;;;;;21.36;43.89;102075.29;106879;1267;25245;-57
2023/09/28 04:47:11;;;;;;;9.40;7.40;;;;;;;21.37;43.78;102076.45;107058;1270;22531;-56
2023/09/28 04:49:41;;;;;;;12.10;7.60;;;;;;;21.32;43.86;102080.54;107104;1260;25471;-56
2023/09/28 04:52:10;;;;;;;11.70;8.00;;;;;;;21.33;44.40;102083.34;106909;1263;25312;-56
2023/09/28 04:54:37;;;;;;;11.30;7.80;;;;;;;21.36;44.47;102081.95;107185;1263;24199;-56
2023/09/28 04:57:05;;;;;;;10.50;7.50;;;;;;;21.37;44.77;102077.52;107090;1257;25779;-56
2023/09/28 04:59:40;;;;;;;13.60;8.20;;;;;;;21.38;44.85;102079.95;107001;1254;22530;-57
2023/09/28 05:02:07;;;;;;;12.80;8.10;;;;;;;21.40;44.53;102076.31;107118;1256;25340;-56
2023/09/28 05:04:35;;;;;;;11.40;7.80;;;;;;;21.40;44.47;102075.08;106844;1266;22572;-56
2023/09/28 05:07:04;;;;;;;10.90;7.90;;;;;;;21.38;44.69;102074.98;107113;1264;25337;-57
2023/09/28 05:09:33;;;;;;;9.00;7.20;;;;;;;21.39;44.90;102071.57;107145;1261;25334;-57
2023/09/28 05:12:01;;;;;;;13.60;8.60;;;;;;;21.42;44.89;102073.73;107045;1256;25364;-56
2023/09/28 05:14:30;;;;;;;16.20;8.60;;;;;;;21.45;45.09;102072.02;107209;1254;25345;-56
2023/09/28 05:16:57;;;;;;;11.10;8.20;;;;;;;21.52;45.38;102071.50;107101;1257;25350;-56
2023/09/28 05:19:25;;;;;;;12.90;8.10;;;;;;;21.58;45.24;102073.49;107125;1251;25401;-57
2023/09/28 05:21:53;;;;;;;10.20;7.40;;;;;;;21.63;45.30;102076.63;107074;1261;25350;-56
2023/09/28 05:24:20;;;;;;;11.10;7.80;;;;;;;21.68;45.45;102080.27;106814;1267;25356;-57
2023/09/28 05:26:48;;;;;;;11.60;7.40;;;;;;;21.73;45.56;102086.57;107212;1254;25404;-57
2023/09/28 05:29:15;;;;;;;13.70;7.40;;;;;;;21.78;45.57;102086.84;107193;1257;22517;-57
2023/09/28 05:31:42;;;;;;;11.50;8.00;;;;;;;21.81;45.46;102093.46;107071;1251;25350;-57
2023/09/28 05:34:09;;;;;;;15.30;7.60;;;;;;;21.85;45.61;102094.83;107171;1254;25468;-57
2023/09/28 05:36:36;;;;;;;18.10;8.70;;;;;;;21.92;45.22;102093.31;106884;1257;25337;-57
2023/09/28 05:39:03;;;;;;;11.80;7.70;;;;;;;21.97;45.23;102092.88;106780;1260;25344;-57
2023/09/28 05:41:31;;;;;;;14.10;7.70;;;;;;;22.03;44.95;102095.21;106802;1274;25376;-57
2023/09/28 05:43:58;;;;;;;11.80;7.40;;;;;;;22.08;44.89;102089.31;107099;1263;25369;-56
2023/09/28 05:46:25;;;;;;;17.10;7.40;;;;;;;22.12;45.02;102087.18;106992;1266;25315;-56
2023/09/28 05:48:53;;;;;;;8.30;6.60;;;;;;;22.18;44.84;102083.37;106827;1257;25325;-57
2023/09/28 05:51:20;;;;;;;9.80;7.10;;;;;;;22.24;44.71;102083.06;106952;1257;25343;-56
2023/09/28 05:53:50;;;;;;;8.70;7.30;;;;;;;22.30;44.67;102083.27;106948;1266;25352;-56
2023/09/28 05:56:17;;;;;;;13.40;7.40;;;;;;;22.35;44.52;102084.61;106679;1276;22536;-57
2023/09/28 05:58:44;;;;;;;9.50;6.60;;;;;;;22.42;44.39;102086.05;107027;1261;22624;-57
2023/09/28 06:01:13;;;;;;;11.90;7.30;;;;;;;22.47;44.59;102086.13;107086;1267;25392;-56
2023/09/28 06:03:40;;;;;;;12.80;7.00;;;;;;;22.55;45.10;102084.84;106776;1257;22527;-56
2023/09/28 06:06:17;;;;;;;8.80;6.60;;;;;;;22.61;45.65;102088.80;107035;1257;25465;-56
2023/09/28 06:08:46;;;;;;;10.40;6.80;;;;;;;22.73;45.50;102090.20;107020;1258;24226;-56
2023/09/28 06:11:13;;;;;;;9.50;6.60;;;;;;;22.84;45.49;102091.17;106743;1257;25283;-56
2023/09/28 06:13:41;;;;;;;13.50;7.10;;;;;;;22.96;45.47;102094.45;106798;1266;22531;-56
2023/09/28 06:16:28;;;;;;;10.20;6.90;;;;;;;23.09;45.48;102090.21;106653;1257;25315;-56
2023/09/28 06:18:56;;;;;;;13.40;7.00;;;;;;;23.20;45.53;102091.75;106542;1273;25290;-57
2023/09/28 06:21:23;;;;;;;9.60;6.40;;;;;;;23.31;45.43;102092.39;106915;1257;25442;-56
2023/09/28 06:23:50;;;;;;;9.30;7.10;;;;;;;23.41;45.45;102092.39;107003;1255;25347;-56
2023/09/28 06:26:17;;;;;;;10.90;6.50;;;;;;;23.50;45.45;102088.55;107157;1264;25335;-56
2023/09/28 06:29:04;;;;;;;11.70;6.70;;;;;;;23.59;45.57;102089.96;107069;1254;25343;-56
2023/09/28 06:31:33;;;;;;;12.00;7.20;;;;;;;23.68;45.55;102090.20;107134;1251;22527;-56
2023/09/28 06:34:00;;;;;;;11.50;7.30;;;;;;;23.76;45.44;102098.43;107005;1263;24261;-55
2023/09/28 06:36:28;;;;;;;17.30;7.40;;;;;;;23.83;45.73;102093.78;106923;1251;315577;-56
2023/09/28 06:38:59;;;;;;;13.00;7.20;;;;;;;23.91;45.79;102091.73;107129;1251;22639;-55
2023/09/28 06:41:26;;;;;;;14.90;7.60;;;;;;;23.98;45.83;102089.71;107084;1251;25395;-55
2023/09/28 06:43:53;;;;;;;8.40;7.10;;;;;;;24.06;45.89;102086.09;107040;1260;24221;-57
2023/09/28 06:46:21;;;;;;;9.90;6.70;;;;;;;24.16;45.58;102086.61;106816;1254;22525;-57
2023/09/28 06:48:52;;;;;;;9.90;6.60;;;;;;;24.28;44.91;102086.41;107080;1256;25337;-57
2023/09/28 06:51:21;;;;;;;14.80;6.80;;;;;;;24.43;44.74;102085.41;107148;1263;25337;-57
2023/09/28 06:53:49;;;;;;;14.20;7.20;;;;;;;24.57;44.35;102084.72;107181;1251;25346;-56
2023/09/28 06:56:16;;;;;;;15.70;7.30;;;;;;;24.70;43.55;102088.02;107034;1254;25482;-57
2023/09/28 06:58:44;;;;;;;11.20;6.20;;;;;;;24.79;43.16;102084.27;107201;1255;25319;-57
2023/09/28 07:01:11;;;;;;;17.00;8.10;;;;;;;24.89;42.81;102089.02;107115;1257;25322;-56
2023/09/28 07:03:38;;;;;;;9.80;6.90;;;;;;;24.96;42.49;102089.67;107143;1267;25338;-57
2023/09/28 07:06:05;;;;;;;11.20;6.80;;;;;;;25.00;42.37;102086.20;107085;1266;25478;-56
2023/09/28 07:08:33;;;;;;;13.00;6.40;;;;;;;25.05;41.85;102086.61;107130;1266;25376;-56
2023/09/28 07:11:01;;;;;;;12.90;6.90;;;;;;;25.08;41.29;102086.23;107064;1257;25532;-56
2023/09/28 07:13:28;;;;;;;11.90;6.80;;;;;;;25.13;41.25;102087.73;107072;1254;25365;-56
2023/09/28 07:15:58;;;;;;;13.50;6.40;;;;;;;25.18;41.26;102086.35;107085;1267;25536;-57
2023/09/28 07:18:25;;;;;;;13.70;6.60;;;;;;;25.21;40.61;102084.91;106867;1267;25335;-56
2023/09/28 07:20:52;;;;;;;13.10;7.30;;;;;;;25.22;40.51;102085.36;107053;1266;22599;-57
2023/09/28 07:23:20;;;;;;;16.60;6.90;;;;;;;25.24;40.92;102082.05;107153;1260;25474;-56
2023/09/28 07:25:48;;;;;;;14.70;7.40;;;;;;;25.25;40.59;102081.63;107132;1251;25318;-56
2023/09/28 07:28:16;;;;;;;10.60;7.20;;;;;;;25.29;40.68;102084.43;107122;1268;25353;-55
2023/09/28 07:30:44;;;;;;;10.50;7.60;;;;;;;25.31;40.65;102085.33;106910;1270;25551;-56
2023/09/28 07:33:13;;;;;;;12.30;6.70;;;;;;;25.35;40.33;102082.96;107058;1254;25349;-56
2023/09/28 07:35:43;;;;;;;10.30;6.50;;;;;;;25.42;39.85;102086.27;107023;1251;25315;-55
2023/09/28 07:38:10;;;;;;;11.70;6.80;;;;;;;25.46;39.82;102081.42;107029;1264;23995;-56
2023/09/28 07:40:38;;;;;;;13.70;6.40;;;;;;;25.49;39.89;102085.27;106895;1256;25475;-56
2023/09/28 07:43:15;;;;;;;13.20;6.70;;;;;;;25.53;39.79;102082.53;107129;1274;25346;-58
2023/09/28 07:45:42;;;;;;;10.90;6.80;;;;;;;25.56;39.54;102074.02;107132;1250;25278;-55
2023/09/28 07:48:11;;;;;;;9.60;6.70;;;;;;;25.60;39.43;102075.91;107067;1266;25359;-55
2023/09/28 07:50:38;;;;;;;10.20;6.70;;;;;;;25.62;39.44;102073.41;107088;1263;25318;-55
2023/09/28 07:53:05;;;;;;;14.20;6.60;;;;;;;25.65;39.34;102072.55;106864;1257;25240;-55
2023/09/28 07:55:32;;;;;;;12.30;6.20;;;;;;;25.67;39.74;102067.63;107060;1258;25343;-55
2023/09/28 07:57:59;;;;;;;9.20;5.80;;;;;;;25.70;39.61;102064.40;107078;1256;25356;-55
2023/09/28 08:00:47;;;;;;;10.40;6.50;;;;;;;25.78;39.07;102064.77;107056;1266;25478;-56
2023/09/28 08:03:14;;;;;;;11.70;6.10;;;;;;;25.78;39.13;102064.93;107125;1254;25346;-56
2023/09/28 08:05:41;;;;;;;9.90;6.10;;;;;;;25.79;39.46;102065.18;107158;1267;25489;-57
2023/09/28 08:08:08;;;;;;;9.60;6.60;;;;;;;25.77;39.42;102059.50;106831;1274;25398;-56
2023/09/28 08:10:44;;;;;;;11.20;5.90;;;;;;;25.86;39.53;102053.39;107135;1266;25345;-56
2023/09/28 08:13:11;;;;;;;10.90;6.10;;;;;;;25.91;39.03;102051.45;106842;1267;25403;-56
2023/09/28 08:15:44;;;;;;;10.20;6.10;;;;;;;25.95;38.73;102049.77;107180;1251;25405;-56
2023/09/28 08:18:13;;;;;;;8.40;5.70;;;;;;;25.99;38.57;102048.84;107107;1270;25309;-56
2023/09/28 08:20:40;;;;;;;9.40;6.10;;;;;;;26.02;38.23;102047.34;106857;1258;25402;-55
2023/09/28 08:23:22;;;;;;;;;;;;;;;26.05;38.43;102044.50;106789;1272;25312;-57
2023/09/28 08:25:49;;;;;;;15.00;5.80;;;;;;;26.10;38.20;102041.70;107140;1267;25604;-56
2023/09/28 08:28:16;;;;;;;7.20;5.70;;;;;;;26.13;38.28;102038.48;107113;1254;25365;-56
2023/09/28 08:30:43;;;;;;;11.50;6.20;;;;;;;26.16;37.94;102038.06;107179;1251;25318;-56
2023/09/28 08:33:10;;;;;;;12.40;5.90;;;;;;;26.21;38.02;102036.66;107056;1267;25394;-56
2023/09/28 08:35:37;;;;;;;9.70;5.40;;;;;;;26.27;38.04;102037.67;107045;1267;23017;-56
2023/09/28 08:38:05;;;;;;;9.30;5.60;;;;;;;26.33;38.04;102033.70;107231;1259;25315;-56
2023/09/28 08:40:32;;;;;;;11.30;5.30;;;;;;;26.40;37.54;102027.56;106892;1270;25474;-56
2023/09/28 08:43:00;;;;;;;10.90;5.40;;;;;;;26.46;37.23;102028.77;107100;1266;22543;-56
2023/09/28 08:45:29;;;;;;;13.30;6.50;;;;;;;26.52;37.25;102025.48;107127;1266;22593;-56
2023/09/28 08:47:56;;;;;;;9.70;5.90;;;;;;;26.58;37.43;102025.07;107062;1274;25337;-56
2023/09/28 08:50:28;;;;;;;10.10;5.10;;;;;;;26.65;37.18;102026.19;107114;1254;25327;-56
2023/09/28 08:52:55;;;;;;;6.20;4.80;;;;;;;26.72;36.79;102024.14;107030;1256;25481;-56
2023/09/28 08:55:23;;;;;;;9.80;5.60;;;;;;;26.76;36.04;102024.88;107053;1269;25414;-56
2023/09/28 08:57:50;;;;;;;8.90;5.60;;;;;;;26.79;36.23;102024.49;107040;1267;25469;-56
2023/09/28 09:00:22;;;;;;;11.90;5.50;;;;;;;26.75;36.00;102020.18;107135;1266;25420;-56
2023/09/28 09:02:53;;;;;;;9.20;5.40;;;;;;;26.80;36.13;102017.13;107022;1256;25369;-56
2023/09/28 09:05:20;;;;;;;11.90;5.30;;;;;;;26.91;35.70;102016.53;107173;1255;24818;-56
2023/09/28 09:07:49;;;;;;;13.80;5.60;;;;;;;26.99;35.36;102016.36;106813;1256;25347;-57
2023/09/28 09:10:20;;;;;;;7.50;5.00;;;;;;;27.05;35.19;102014.46;107087;1267;22527;-56
2023/09/28 09:12:47;;;;;;;7.20;5.50;;;;;;;27.11;35.00;102011.17;107103;1263;22531;-56
2023/09/28 09:15:14;;;;;;;8.60;5.00;;;;;;;27.17;34.83;102007.38;106717;1263;25526;-56
2023/09/28 09:17:41;;;;;;;6.60;5.50;;;;;;;27.21;34.58;102002.76;106788;1274;25327;-56
2023/09/28 09:20:09;;;;;;;6.40;5.00;;;;;;;27.25;34.19;101999.63;107101;1266;25337;-56
2023/09/28 09:22:37;;;;;;;8.00;4.70;;;;;;;27.30;34.15;102001.98;107178;1263;22564;-56
2023/09/28 09:25:25;;;;;;;6.40;4.60;;;;;;;27.34;34.58;102001.30;107119;1266;25447;-55
2023/09/28 09:27:52;;;;;;;10.60;5.00;;;;;;;27.39;34.77;101995.63;107093;1266;25338;-56
2023/09/28 09:30:20;;;;;;;11.00;5.40;;;;;;;27.44;34.89;101993.17;107099;1266;25392;-56
2023/09/28 09:32:47;;;;;;;7.30;5.00;;;;;;;27.50;34.60;101996.29;107109;1266;24278;-57
2023/09/28 09:35:15;;;;;;;6.70;5.10;;;;;;;27.55;34.59;101992.67;107007;1267;24576;-56
2023/09/28 09:37:50;;;;;;;8.00;4.60;;;;;;;27.60;34.72;101999.27;107103;1266;25346;-56
2023/09/28 09:40:18;;;;;;;7.00;4.80;;;;;;;27.65;34.67;101997.87;107120;1266;24285;-56
2023/09/28 09:42:45;;;;;;;9.60;4.50;;;;;;;27.68;34.53;101998.65;107137;1266;25434;-56
2023/09/28 09:45:12;;;;;;;7.40;4.80;;;;;;;27.72;34.59;101996.80;106820;1257;25338;-57
2023/09/28 09:47:43;;;;;;;11.60;4.90;;;;;;;27.67;34.82;101992.90;106960;1266;25343;-55
2023/09/28 09:50:13;;;;;;;8.10;4.60;;;;;;;27.67;35.24;101996.79;106870;1266;25312;-57
2023/09/28 09:52:44;;;;;;;10.20;5.30;;;;;;;27.72;35.46;101993.05;106940;1263;22520;-56
2023/09/28 09:55:12;;;;;;;6.70;4.70;;;;;;;27.75;35.26;101988.75;106803;1269;25455;-57
2023/09/28 09:57:41;;;;;;;8.70;4.90;;;;;;;27.81;35.06;101984.70;107284;1266;25333;-57
2023/09/28 10:00:09;;;;;;;12.10;4.50;;;;;;;27.87;35.26;101983.67;107062;1266;25395;-57
2023/09/28 10:02:39;;;;;;;9.40;4.50;;;;;;;27.85;35.15;101983.65;106838;1267;25322;-56
2023/09/28 10:05:08;;;;;;;8.10;4.20;;;;;;;27.86;35.33;101980.37;107127;1267;25328;-55
2023/09/28 10:07:37;;;;;;;7.40;4.50;;;;;;;27.87;35.55;101980.63;107127;1266;25338;-56
2023/09/28 10:10:14;;;;;;;11.60;4.80;;;;;;;27.90;35.80;101981.16;106910;1267;25395;-56
2023/09/28 10:12:42;;;;;;;9.80;4.60;;;;;;;27.93;35.71;101979.50;106819;1270;25468;-57
2023/09/28 10:15:09;;;;;;;8.80;4.70;;;;;;;28.00;35.77;101979.32;107052;1263;25268;-56
2023/09/28 10:17:36;;;;;;;9.60;5.10;;;;;;;28.00;35.82;101977.92;107154;1266;25443;-57
2023/09/28 10:20:06;;;;;;;6.80;4.80;;;;;;;28.01;35.92;101975.67;107134;1268;25328;-57
2023/09/28 10:22:33;;;;;;;8.20;5.10;;;;;;;28.09;35.64;101976.15;106934;1269;24381;-57
2023/09/28 10:25:00;;;;;;;8.90;5.10;;;;;;;28.14;35.40;101970.45;107201;1266;22520;-57
2023/09/28 10:28:06;;;;;;;10.40;4.30;;;;;;;28.13;34.95;101970.50;106871;1267;24367;-56
2023/09/28 10:31:04;;;;;;;12.20;5.10;;;;;;;28.16;34.78;101969.40;107027;1266;25328;-57
2023/09/28 10:33:32;;;;;;;10.20;5.50;;;;;;;28.19;34.68;101963.61;107027;1270;25361;-56
2023/09/28 10:36:12;;;;;;;9.10;4.30;;;;;;;28.38;34.25;101968.70;107123;1266;25402;-57
2023/09/28 10:38:42;;;;;;;11.30;4.30;;;;;;;28.58;34.13;101965.07;107138;1266;25354;-56
2023/09/28 10:41:10;;;;;;;11.20;4.90;;;;;;;28.66;34.10;101962.45;107096;1259;25347;-56
2023/09/28 10:43:39;;;;;;;7.20;4.20;;;;;;;28.72;34.43;101961.27;106944;1264;25316;-56
2023/09/28 10:46:07;;;;;;;8.40;4.30;;;;;;;28.76;34.21;101960.02;107077;1268;25395;-56
2023/09/28 10:48:41;;;;;;;8.30;4.60;;;;;;;28.77;33.86;101960.08;107092;1254;25331;-56
2023/09/28 10:51:12;;;;;;;9.60;4.40;;;;;;;28.82;34.01;101957.52;107102;1266;22659;-56
2023/09/28 10:53:39;;;;;;;11.90;5.20;;;;;;;28.93;33.96;101955.93;107089;1268;22536;-55
2023/09/28 10:58:57;;;;;;;13.40;6.80;;;;;;;29.02;33.31;101955.47;107169;1266;25394;-56
2023/09/28 11:01:26;;;;;;;8.50;4.60;;;;;;;29.06;32.97;101954.77;107079;1257;25395;-56
2023/09/28 11:03:54;;;;;;;8.70;5.00;;;;;;;29.08;32.59;101951.94;106909;1254;25327;-56
2023/09/28 11:06:42;;;;;;;5.70;4.40;;;;;;;29.08;32.74;101951.23;106930;1269;24447;-57
2023/09/28 11:09:09;;;;;;;9.40;5.10;;;;;;;29.10;32.86;101951.38;107118;1262;23631;-56
2023/09/28 11:14:26;;;;;;;10.30;3.90;;;;;;;29.16;32.35;101940.23;107020;1273;25420;-56
2023/09/28 11:16:53;;;;;;;7.10;5.50;;;;;;;29.16;31.56;101943.03;106912;1266;25450;-56
2023/09/28 11:19:22;;;;;;;9.80;4.70;;;;;;;29.13;31.02;101940.08;106935;1254;24236;-56
2023/09/28 11:24:54;;;;;;;12.10;4.60;;;;;;;29.19;29.97;101936.38;106873;1259;25548;-57
2023/09/28 11:27:40;;;;;;;6.10;3.90;;;;;;;29.20;30.37;101935.39;106901;1254;24182;-57